sensor_id;sensor_type;location;lat;lon;timestamp;P1;durP1;ratioP1;P2;durP2;ratioP2
2299;SDS011;1158;48.750;9.078;2022-09-28T00:01:51;2.80;;;1.90;;
2299;SDS011;1158;48.750;9.078;2022-09-28T00:04:18;3.50;;;1.67;;
2299;SDS011;1158;48.750;9.078;2022-09-28T00:06:45;4.07;;;1.77;;
2299;SDS011;1158;48.750;9.078;2022-09-28T00:09:12;3.80;;;1.97;;
2299;SDS011;1158;48.750;9.078;2022-09-28T00:11:40;3.67;;;2.00;;
2299;SDS011;1158;48.750;9.078;2022-09-28T00:14:07;2.57;;;1.73;;
2299;SDS011;1158;48.750;9.078;2022-09-28T00:16:37;2.90;;;2.10;;
2299;SDS011;1158;48.750;9.078;2022-09-28T00:19:06;3.37;;;1.63;;
2299;SDS011;1158;48.750;9.078;2022-09-28T00:21:35;2.60;;;1.90;;
2299;SDS011;1158;48.750;9.078;2022-09-28T00:24:03;2.50;;;1.57;;
2299;SDS011;1158;48.750;9.078;2022-09-28T00:26:41;3.00;;;1.80;;
2299;SDS011;1158;48.750;9.078;2022-09-28T00:29:17;3.53;;;2.10;;
2299;SDS011;1158;48.750;9.078;2022-09-28T00:31:47;4.10;;;1.67;;
2299;SDS011;1158;48.750;9.078;2022-09-28T00:34:17;3.00;;;1.60;;
2299;SDS011;1158;48.750;9.078;2022-09-28T00:36:45;4.90;;;2.00;;
2299;SDS011;1158;48.750;9.078;2022-09-28T00:39:13;3.80;;;1.93;;
2299;SDS011;1158;48.750;9.078;2022-09-28T00:41:41;3.30;;;1.73;;
2299;SDS011;1158;48.750;9.078;2022-09-28T00:47:11;8.33;;;1.97;;
2299;SDS011;1158;48.750;9.078;2022-09-28T00:49:44;4.47;;;1.80;;
2299;SDS011;1158;48.750;9.078;2022-09-28T00:52:18;6.07;;;2.23;;
2299;SDS011;1158;48.750;9.078;2022-09-28T00:54:48;4.00;;;1.80;;
2299;SDS011;1158;48.750;9.078;2022-09-28T00:57:16;3.20;;;1.70;;
2299;SDS011;1158;48.750;9.078;2022-09-28T00:59:44;2.60;;;1.70;;
2299;SDS011;1158;48.750;9.078;2022-09-28T01:02:12;5.37;;;2.30;;
2299;SDS011;1158;48.750;9.078;2022-09-28T01:04:39;3.70;;;1.33;;
2299;SDS011;1158;48.750;9.078;2022-09-28T01:07:06;5.50;;;1.80;;
2299;SDS011;1158;48.750;9.078;2022-09-28T01:09:35;7.07;;;1.47;;
2299;SDS011;1158;48.750;9.078;2022-09-28T01:12:03;3.83;;;1.37;;
2299;SDS011;1158;48.750;9.078;2022-09-28T01:14:30;3.63;;;1.63;;
2299;SDS011;1158;48.750;9.078;2022-09-28T01:16:59;10.60;;;1.83;;
2299;SDS011;1158;48.750;9.078;2022-09-28T01:19:41;4.60;;;2.00;;
2299;SDS011;1158;48.750;9.078;2022-09-28T01:22:29;2.70;;;1.57;;
2299;SDS011;1158;48.750;9.078;2022-09-28T01:25:21;4.90;;;1.77;;
2299;SDS011;1158;48.750;9.078;2022-09-28T01:27:55;4.37;;;1.83;;
2299;SDS011;1158;48.750;9.078;2022-09-28T01:30:25;3.43;;;1.57;;
2299;SDS011;1158;48.750;9.078;2022-09-28T01:32:52;7.90;;;1.80;;
2299;SDS011;1158;48.750;9.078;2022-09-28T01:35:24;2.50;;;1.40;;
2299;SDS011;1158;48.750;9.078;2022-09-28T01:37:56;3.90;;;1.90;;
2299;SDS011;1158;48.750;9.078;2022-09-28T01:40:26;4.10;;;1.90;;
2299;SDS011;1158;48.750;9.078;2022-09-28T01:42:57;4.43;;;2.00;;
2299;SDS011;1158;48.750;9.078;2022-09-28T01:45:27;3.13;;;1.63;;
2299;SDS011;1158;48.750;9.078;2022-09-28T01:47:59;5.90;;;2.30;;
2299;SDS011;1158;48.750;9.078;2022-09-28T01:50:30;7.60;;;1.97;;
2299;SDS011;1158;48.750;9.078;2022-09-28T01:53:03;2.20;;;1.47;;
2299;SDS011;1158;48.750;9.078;2022-09-28T01:55:36;3.20;;;1.87;;
2299;SDS011;1158;48.750;9.078;2022-09-28T01:58:09;6.50;;;1.87;;
2299;SDS011;1158;48.750;9.078;2022-09-28T02:00:40;5.90;;;2.30;;
2299;SDS011;1158;48.750;9.078;2022-09-28T02:03:13;6.53;;;2.20;;
2299;SDS011;1158;48.750;9.078;2022-09-28T02:05:45;4.90;;;2.40;;
2299;SDS011;1158;48.750;9.078;2022-09-28T02:08:17;6.23;;;1.83;;
2299;SDS011;1158;48.750;9.078;2022-09-28T02:10:51;6.97;;;2.57;;
2299;SDS011;1158;48.750;9.078;2022-09-28T02:13:23;7.30;;;2.37;;
2299;SDS011;1158;48.750;9.078;2022-09-28T02:15:55;9.30;;;2.40;;
2299;SDS011;1158;48.750;9.078;2022-09-28T02:18:28;3.97;;;2.00;;
2299;SDS011;1158;48.750;9.078;2022-09-28T02:20:56;8.33;;;2.10;;
2299;SDS011;1158;48.750;9.078;2022-09-28T02:23:26;9.13;;;2.60;;
2299;SDS011;1158;48.750;9.078;2022-09-28T02:25:59;8.77;;;2.10;;
2299;SDS011;1158;48.750;9.078;2022-09-28T02:28:29;6.30;;;2.30;;
2299;SDS011;1158;48.750;9.078;2022-09-28T02:30:56;9.80;;;2.50;;
2299;SDS011;1158;48.750;9.078;2022-09-28T02:33:23;10.70;;;2.60;;
2299;SDS011;1158;48.750;9.078;2022-09-28T02:35:54;8.43;;;2.80;;
2299;SDS011;1158;48.750;9.078;2022-09-28T02:38:22;9.00;;;2.40;;
2299;SDS011;1158;48.750;9.078;2022-09-28T02:40:51;6.90;;;2.60;;
2299;SDS011;1158;48.750;9.078;2022-09-28T02:43:29;7.50;;;2.40;;
2299;SDS011;1158;48.750;9.078;2022-09-28T02:46:06;7.17;;;2.20;;
2299;SDS011;1158;48.750;9.078;2022-09-28T02:48:45;10.00;;;2.93;;
2299;SDS011;1158;48.750;9.078;2022-09-28T02:51:26;7.77;;;2.20;;
2299;SDS011;1158;48.750;9.078;2022-09-28T02:57:08;5.80;;;2.30;;
2299;SDS011;1158;48.750;9.078;2022-09-28T02:59:45;7.40;;;2.13;;
2299;SDS011;1158;48.750;9.078;2022-09-28T03:02:18;9.17;;;2.80;;
2299;SDS011;1158;48.750;9.078;2022-09-28T03:04:54;4.17;;;1.97;;
2299;SDS011;1158;48.750;9.078;2022-09-28T03:07:30;12.37;;;2.93;;
2299;SDS011;1158;48.750;9.078;2022-09-28T03:10:02;4.27;;;2.27;;
2299;SDS011;1158;48.750;9.078;2022-09-28T03:12:34;6.80;;;2.57;;
2299;SDS011;1158;48.750;9.078;2022-09-28T03:15:07;10.03;;;3.00;;
2299;SDS011;1158;48.750;9.078;2022-09-28T03:17:37;6.60;;;2.30;;
2299;SDS011;1158;48.750;9.078;2022-09-28T03:20:04;6.93;;;2.10;;
2299;SDS011;1158;48.750;9.078;2022-09-28T03:22:32;8.53;;;2.57;;
2299;SDS011;1158;48.750;9.078;2022-09-28T03:24:58;9.70;;;2.60;;
2299;SDS011;1158;48.750;9.078;2022-09-28T03:27:25;9.60;;;2.30;;
2299;SDS011;1158;48.750;9.078;2022-09-28T03:29:52;7.27;;;2.60;;
2299;SDS011;1158;48.750;9.078;2022-09-28T03:32:20;4.33;;;2.03;;
2299;SDS011;1158;48.750;9.078;2022-09-28T03:34:46;7.23;;;2.47;;
2299;SDS011;1158;48.750;9.078;2022-09-28T03:37:13;8.10;;;2.90;;
2299;SDS011;1158;48.750;9.078;2022-09-28T03:39:40;3.50;;;2.00;;
2299;SDS011;1158;48.750;9.078;2022-09-28T03:42:07;7.07;;;2.20;;
2299;SDS011;1158;48.750;9.078;2022-09-28T03:44:33;7.37;;;2.40;;
2299;SDS011;1158;48.750;9.078;2022-09-28T03:47:00;10.17;;;2.13;;
2299;SDS011;1158;48.750;9.078;2022-09-28T03:49:28;7.43;;;2.10;;
2299;SDS011;1158;48.750;9.078;2022-09-28T03:51:55;7.00;;;2.07;;
2299;SDS011;1158;48.750;9.078;2022-09-28T03:54:21;7.00;;;2.70;;
2299;SDS011;1158;48.750;9.078;2022-09-28T03:56:48;5.97;;;2.20;;
2299;SDS011;1158;48.750;9.078;2022-09-28T03:59:15;8.27;;;2.63;;
2299;SDS011;1158;48.750;9.078;2022-09-28T04:01:42;5.40;;;2.07;;
2299;SDS011;1158;48.750;9.078;2022-09-28T04:04:10;3.90;;;1.63;;
2299;SDS011;1158;48.750;9.078;2022-09-28T04:06:38;6.60;;;1.63;;
2299;SDS011;1158;48.750;9.078;2022-09-28T04:09:05;7.40;;;1.40;;
2299;SDS011;1158;48.750;9.078;2022-09-28T04:11:32;5.10;;;1.90;;
2299;SDS011;1158;48.750;9.078;2022-09-28T04:13:59;3.50;;;1.47;;
2299;SDS011;1158;48.750;9.078;2022-09-28T04:16:26;3.93;;;1.30;;
2299;SDS011;1158;48.750;9.078;2022-09-28T04:18:53;5.83;;;1.93;;
2299;SDS011;1158;48.750;9.078;2022-09-28T04:21:20;2.30;;;1.30;;
2299;SDS011;1158;48.750;9.078;2022-09-28T04:23:48;5.53;;;1.10;;
2299;SDS011;1158;48.750;9.078;2022-09-28T04:26:15;6.13;;;1.50;;
2299;SDS011;1158;48.750;9.078;2022-09-28T04:28:43;3.53;;;1.17;;
2299;SDS011;1158;48.750;9.078;2022-09-28T04:31:28;2.63;;;1.30;;
2299;SDS011;1158;48.750;9.078;2022-09-28T04:33:55;7.43;;;1.57;;
2299;SDS011;1158;48.750;9.078;2022-09-28T04:36:22;4.73;;;1.77;;
2299;SDS011;1158;48.750;9.078;2022-09-28T04:38:51;5.73;;;1.50;;
2299;SDS011;1158;48.750;9.078;2022-09-28T04:41:18;3.93;;;1.40;;
2299;SDS011;1158;48.750;9.078;2022-09-28T04:43:46;6.53;;;1.90;;
2299;SDS011;1158;48.750;9.078;2022-09-28T04:46:13;2.50;;;1.10;;
2299;SDS011;1158;48.750;9.078;2022-09-28T04:48:40;3.03;;;1.30;;
2299;SDS011;1158;48.750;9.078;2022-09-28T04:51:07;6.57;;;1.40;;
2299;SDS011;1158;48.750;9.078;2022-09-28T04:53:33;5.07;;;1.90;;
2299;SDS011;1158;48.750;9.078;2022-09-28T04:56:03;4.10;;;1.50;;
2299;SDS011;1158;48.750;9.078;2022-09-28T04:58:31;6.60;;;1.67;;
2299;SDS011;1158;48.750;9.078;2022-09-28T05:00:59;3.00;;;1.30;;
2299;SDS011;1158;48.750;9.078;2022-09-28T05:03:28;4.90;;;1.70;;
2299;SDS011;1158;48.750;9.078;2022-09-28T05:05:54;3.47;;;1.40;;
2299;SDS011;1158;48.750;9.078;2022-09-28T05:08:21;4.70;;;1.30;;
2299;SDS011;1158;48.750;9.078;2022-09-28T05:10:55;3.10;;;1.57;;
2299;SDS011;1158;48.750;9.078;2022-09-28T05:13:24;18.10;;;2.00;;
2299;SDS011;1158;48.750;9.078;2022-09-28T05:15:52;4.10;;;1.30;;
2299;SDS011;1158;48.750;9.078;2022-09-28T05:18:20;2.83;;;1.20;;
2299;SDS011;1158;48.750;9.078;2022-09-28T05:20:47;2.40;;;1.10;;
2299;SDS011;1158;48.750;9.078;2022-09-28T05:23:14;5.10;;;1.60;;
2299;SDS011;1158;48.750;9.078;2022-09-28T05:25:42;5.47;;;1.60;;
2299;SDS011;1158;48.750;9.078;2022-09-28T05:28:09;4.00;;;1.37;;
2299;SDS011;1158;48.750;9.078;2022-09-28T05:30:38;6.60;;;1.70;;
2299;SDS011;1158;48.750;9.078;2022-09-28T05:33:04;3.57;;;1.57;;
2299;SDS011;1158;48.750;9.078;2022-09-28T05:35:31;4.03;;;1.30;;
2299;SDS011;1158;48.750;9.078;2022-09-28T05:38:01;4.87;;;1.60;;
2299;SDS011;1158;48.750;9.078;2022-09-28T05:40:29;6.07;;;1.70;;
2299;SDS011;1158;48.750;9.078;2022-09-28T05:42:57;3.73;;;1.80;;
2299;SDS011;1158;48.750;9.078;2022-09-28T05:45:25;3.43;;;1.40;;
2299;SDS011;1158;48.750;9.078;2022-09-28T05:47:54;2.80;;;1.30;;
2299;SDS011;1158;48.750;9.078;2022-09-28T05:50:21;4.27;;;1.57;;
2299;SDS011;1158;48.750;9.078;2022-09-28T05:52:55;4.73;;;2.07;;
2299;SDS011;1158;48.750;9.078;2022-09-28T05:55:24;6.30;;;1.63;;
2299;SDS011;1158;48.750;9.078;2022-09-28T05:57:51;5.57;;;2.00;;
2299;SDS011;1158;48.750;9.078;2022-09-28T06:00:18;3.50;;;1.50;;
2299;SDS011;1158;48.750;9.078;2022-09-28T06:02:54;2.90;;;1.77;;
2299;SDS011;1158;48.750;9.078;2022-09-28T06:05:22;2.80;;;1.70;;
2299;SDS011;1158;48.750;9.078;2022-09-28T06:07:49;3.43;;;1.70;;
2299;SDS011;1158;48.750;9.078;2022-09-28T06:10:16;5.63;;;2.07;;
2299;SDS011;1158;48.750;9.078;2022-09-28T06:12:42;7.77;;;1.93;;
2299;SDS011;1158;48.750;9.078;2022-09-28T06:15:11;6.20;;;2.33;;
2299;SDS011;1158;48.750;9.078;2022-09-28T06:17:38;3.80;;;2.40;;
2299;SDS011;1158;48.750;9.078;2022-09-28T06:20:07;5.47;;;2.27;;
2299;SDS011;1158;48.750;9.078;2022-09-28T06:22:34;6.50;;;2.23;;
2299;SDS011;1158;48.750;9.078;2022-09-28T06:25:01;4.63;;;1.87;;
2299;SDS011;1158;48.750;9.078;2022-09-28T06:27:28;6.53;;;2.70;;
2299;SDS011;1158;48.750;9.078;2022-09-28T06:29:55;7.07;;;3.23;;
2299;SDS011;1158;48.750;9.078;2022-09-28T06:32:21;8.20;;;2.70;;
2299;SDS011;1158;48.750;9.078;2022-09-28T06:34:48;4.90;;;2.57;;
2299;SDS011;1158;48.750;9.078;2022-09-28T06:37:16;7.60;;;2.63;;
2299;SDS011;1158;48.750;9.078;2022-09-28T06:39:43;7.70;;;2.97;;
2299;SDS011;1158;48.750;9.078;2022-09-28T06:42:09;4.33;;;2.47;;
2299;SDS011;1158;48.750;9.078;2022-09-28T06:44:36;7.30;;;2.73;;
2299;SDS011;1158;48.750;9.078;2022-09-28T06:47:03;7.17;;;3.40;;
2299;SDS011;1158;48.750;9.078;2022-09-28T06:49:30;9.97;;;3.40;;
2299;SDS011;1158;48.750;9.078;2022-09-28T06:51:56;9.27;;;3.40;;
2299;SDS011;1158;48.750;9.078;2022-09-28T06:54:24;11.63;;;4.23;;
2299;SDS011;1158;48.750;9.078;2022-09-28T06:56:51;10.60;;;2.93;;
2299;SDS011;1158;48.750;9.078;2022-09-28T06:59:18;9.40;;;3.17;;
2299;SDS011;1158;48.750;9.078;2022-09-28T07:01:45;5.73;;;3.20;;
2299;SDS011;1158;48.750;9.078;2022-09-28T07:04:12;4.87;;;2.67;;
2299;SDS011;1158;48.750;9.078;2022-09-28T07:06:38;8.50;;;2.93;;
2299;SDS011;1158;48.750;9.078;2022-09-28T07:09:05;9.67;;;2.67;;
2299;SDS011;1158;48.750;9.078;2022-09-28T07:11:37;8.17;;;3.13;;
2299;SDS011;1158;48.750;9.078;2022-09-28T07:14:04;4.83;;;2.73;;
2299;SDS011;1158;48.750;9.078;2022-09-28T07:16:33;7.20;;;3.30;;
2299;SDS011;1158;48.750;9.078;2022-09-28T07:19:00;9.57;;;3.20;;
2299;SDS011;1158;48.750;9.078;2022-09-28T07:21:27;12.00;;;3.40;;
2299;SDS011;1158;48.750;9.078;2022-09-28T07:23:53;6.33;;;2.43;;
2299;SDS011;1158;48.750;9.078;2022-09-28T07:26:20;11.30;;;3.20;;
2299;SDS011;1158;48.750;9.078;2022-09-28T07:28:48;4.00;;;2.57;;
2299;SDS011;1158;48.750;9.078;2022-09-28T07:31:15;5.93;;;2.97;;
2299;SDS011;1158;48.750;9.078;2022-09-28T07:33:42;6.27;;;3.30;;
2299;SDS011;1158;48.750;9.078;2022-09-28T07:36:09;5.50;;;2.93;;
2299;SDS011;1158;48.750;9.078;2022-09-28T07:38:36;4.80;;;2.27;;
2299;SDS011;1158;48.750;9.078;2022-09-28T07:41:03;7.80;;;3.30;;
2299;SDS011;1158;48.750;9.078;2022-09-28T07:43:38;3.80;;;2.33;;
2299;SDS011;1158;48.750;9.078;2022-09-28T07:46:07;5.53;;;3.03;;
2299;SDS011;1158;48.750;9.078;2022-09-28T07:48:37;7.07;;;3.43;;
2299;SDS011;1158;48.750;9.078;2022-09-28T07:51:07;6.93;;;2.50;;
2299;SDS011;1158;48.750;9.078;2022-09-28T07:53:35;6.90;;;2.33;;
2299;SDS011;1158;48.750;9.078;2022-09-28T07:56:02;9.83;;;2.70;;
2299;SDS011;1158;48.750;9.078;2022-09-28T07:58:32;6.50;;;2.80;;
2299;SDS011;1158;48.750;9.078;2022-09-28T08:01:01;5.53;;;2.93;;
2299;SDS011;1158;48.750;9.078;2022-09-28T08:03:32;5.70;;;2.07;;
2299;SDS011;1158;48.750;9.078;2022-09-28T08:05:59;4.87;;;3.00;;
2299;SDS011;1158;48.750;9.078;2022-09-28T08:08:27;5.73;;;2.30;;
2299;SDS011;1158;48.750;9.078;2022-09-28T08:10:55;5.57;;;2.60;;
2299;SDS011;1158;48.750;9.078;2022-09-28T08:13:22;4.53;;;2.37;;
2299;SDS011;1158;48.750;9.078;2022-09-28T08:15:50;4.37;;;2.73;;
2299;SDS011;1158;48.750;9.078;2022-09-28T08:18:17;5.60;;;2.47;;
2299;SDS011;1158;48.750;9.078;2022-09-28T08:20:46;4.43;;;2.30;;
2299;SDS011;1158;48.750;9.078;2022-09-28T08:23:30;4.80;;;2.30;;
2299;SDS011;1158;48.750;9.078;2022-09-28T08:25:57;4.83;;;2.40;;
2299;SDS011;1158;48.750;9.078;2022-09-28T08:28:23;7.23;;;2.40;;
2299;SDS011;1158;48.750;9.078;2022-09-28T08:30:50;3.50;;;1.80;;
2299;SDS011;1158;48.750;9.078;2022-09-28T08:33:18;4.53;;;2.23;;
2299;SDS011;1158;48.750;9.078;2022-09-28T08:35:53;9.47;;;2.23;;
2299;SDS011;1158;48.750;9.078;2022-09-28T08:38:21;4.00;;;2.00;;
2299;SDS011;1158;48.750;9.078;2022-09-28T08:40:49;3.83;;;2.17;;
2299;SDS011;1158;48.750;9.078;2022-09-28T08:43:35;5.07;;;2.60;;
2299;SDS011;1158;48.750;9.078;2022-09-28T08:46:19;4.97;;;1.93;;
2299;SDS011;1158;48.750;9.078;2022-09-28T08:48:50;4.20;;;1.83;;
2299;SDS011;1158;48.750;9.078;2022-09-28T08:51:24;3.77;;;2.17;;
2299;SDS011;1158;48.750;9.078;2022-09-28T08:53:56;4.60;;;2.43;;
2299;SDS011;1158;48.750;9.078;2022-09-28T08:56:30;7.43;;;2.10;;
2299;SDS011;1158;48.750;9.078;2022-09-28T08:59:08;4.53;;;2.20;;
2299;SDS011;1158;48.750;9.078;2022-09-28T09:01:39;3.27;;;1.70;;
2299;SDS011;1158;48.750;9.078;2022-09-28T09:04:12;3.17;;;2.30;;
2299;SDS011;1158;48.750;9.078;2022-09-28T09:06:44;6.10;;;2.63;;
2299;SDS011;1158;48.750;9.078;2022-09-28T09:09:30;4.67;;;1.80;;
2299;SDS011;1158;48.750;9.078;2022-09-28T09:12:12;4.53;;;2.40;;
2299;SDS011;1158;48.750;9.078;2022-09-28T09:15:03;6.23;;;2.30;;
2299;SDS011;1158;48.750;9.078;2022-09-28T09:17:46;5.70;;;2.50;;
2299;SDS011;1158;48.750;9.078;2022-09-28T09:20:24;4.73;;;2.30;;
2299;SDS011;1158;48.750;9.078;2022-09-28T09:23:02;5.87;;;2.67;;
2299;SDS011;1158;48.750;9.078;2022-09-28T09:25:39;6.43;;;2.60;;
2299;SDS011;1158;48.750;9.078;2022-09-28T09:28:17;5.40;;;2.37;;
2299;SDS011;1158;48.750;9.078;2022-09-28T09:31:15;4.53;;;2.87;;
2299;SDS011;1158;48.750;9.078;2022-09-28T09:37:13;6.33;;;3.07;;
2299;SDS011;1158;48.750;9.078;2022-09-28T09:39:57;6.77;;;2.93;;
2299;SDS011;1158;48.750;9.078;2022-09-28T09:42:37;4.67;;;2.50;;
2299;SDS011;1158;48.750;9.078;2022-09-28T09:45:21;4.53;;;2.60;;
2299;SDS011;1158;48.750;9.078;2022-09-28T09:48:01;4.30;;;2.53;;
2299;SDS011;1158;48.750;9.078;2022-09-28T09:50:30;5.33;;;2.10;;
2299;SDS011;1158;48.750;9.078;2022-09-28T09:53:03;8.33;;;2.37;;
2299;SDS011;1158;48.750;9.078;2022-09-28T09:55:39;4.17;;;2.10;;
2299;SDS011;1158;48.750;9.078;2022-09-28T09:58:10;4.40;;;2.40;;
2299;SDS011;1158;48.750;9.078;2022-09-28T10:00:41;5.07;;;2.13;;
2299;SDS011;1158;48.750;9.078;2022-09-28T10:03:12;5.27;;;2.17;;
2299;SDS011;1158;48.750;9.078;2022-09-28T10:05:45;4.30;;;1.97;;
2299;SDS011;1158;48.750;9.078;2022-09-28T10:08:18;8.43;;;2.43;;
2299;SDS011;1158;48.750;9.078;2022-09-28T10:10:50;5.13;;;2.33;;
2299;SDS011;1158;48.750;9.078;2022-09-28T10:13:19;5.00;;;2.13;;
2299;SDS011;1158;48.750;9.078;2022-09-28T10:15:46;5.00;;;2.23;;
2299;SDS011;1158;48.750;9.078;2022-09-28T10:18:14;5.97;;;1.87;;
2299;SDS011;1158;48.750;9.078;2022-09-28T10:20:44;6.70;;;2.47;;
2299;SDS011;1158;48.750;9.078;2022-09-28T10:23:12;6.70;;;2.40;;
2299;SDS011;1158;48.750;9.078;2022-09-28T10:25:44;4.50;;;2.17;;
2299;SDS011;1158;48.750;9.078;2022-09-28T10:28:14;5.13;;;2.27;;
2299;SDS011;1158;48.750;9.078;2022-09-28T10:30:46;5.33;;;2.80;;
2299;SDS011;1158;48.750;9.078;2022-09-28T10:33:28;9.07;;;2.07;;
2299;SDS011;1158;48.750;9.078;2022-09-28T10:35:57;7.17;;;2.60;;
2299;SDS011;1158;48.750;9.078;2022-09-28T10:38:25;4.50;;;2.40;;
2299;SDS011;1158;48.750;9.078;2022-09-28T10:40:59;4.50;;;2.20;;
2299;SDS011;1158;48.750;9.078;2022-09-28T10:43:35;5.37;;;2.23;;
2299;SDS011;1158;48.750;9.078;2022-09-28T10:46:04;5.03;;;2.23;;
2299;SDS011;1158;48.750;9.078;2022-09-28T10:48:35;2.73;;;1.73;;
2299;SDS011;1158;48.750;9.078;2022-09-28T10:51:13;5.30;;;1.77;;
2299;SDS011;1158;48.750;9.078;2022-09-28T10:53:41;5.70;;;2.37;;
2299;SDS011;1158;48.750;9.078;2022-09-28T10:56:22;3.83;;;2.07;;
2299;SDS011;1158;48.750;9.078;2022-09-28T10:58:54;5.30;;;2.30;;
2299;SDS011;1158;48.750;9.078;2022-09-28T11:01:22;7.17;;;2.40;;
2299;SDS011;1158;48.750;9.078;2022-09-28T11:03:53;5.97;;;2.33;;
2299;SDS011;1158;48.750;9.078;2022-09-28T11:06:22;8.80;;;2.40;;
2299;SDS011;1158;48.750;9.078;2022-09-28T11:08:52;5.90;;;2.20;;
2299;SDS011;1158;48.750;9.078;2022-09-28T11:11:21;5.83;;;2.30;;
2299;SDS011;1158;48.750;9.078;2022-09-28T11:13:49;3.40;;;2.03;;
2299;SDS011;1158;48.750;9.078;2022-09-28T11:16:23;3.80;;;1.90;;
2299;SDS011;1158;48.750;9.078;2022-09-28T11:18:52;9.40;;;2.90;;
2299;SDS011;1158;48.750;9.078;2022-09-28T11:21:21;8.10;;;2.47;;
2299;SDS011;1158;48.750;9.078;2022-09-28T11:23:57;6.50;;;2.60;;
2299;SDS011;1158;48.750;9.078;2022-09-28T11:26:33;5.90;;;2.20;;
2299;SDS011;1158;48.750;9.078;2022-09-28T11:29:05;3.27;;;1.60;;
2299;SDS011;1158;48.750;9.078;2022-09-28T11:31:46;5.17;;;1.83;;
2299;SDS011;1158;48.750;9.078;2022-09-28T11:34:14;4.53;;;1.70;;
2299;SDS011;1158;48.750;9.078;2022-09-28T11:36:50;3.87;;;1.90;;
2299;SDS011;1158;48.750;9.078;2022-09-28T11:39:27;4.87;;;2.00;;
2299;SDS011;1158;48.750;9.078;2022-09-28T11:42:01;3.60;;;1.70;;
2299;SDS011;1158;48.750;9.078;2022-09-28T11:44:37;3.60;;;1.50;;
2299;SDS011;1158;48.750;9.078;2022-09-28T11:47:24;3.60;;;1.40;;
2299;SDS011;1158;48.750;9.078;2022-09-28T11:50:03;5.43;;;1.73;;
2299;SDS011;1158;48.750;9.078;2022-09-28T11:52:42;5.27;;;2.00;;
2299;SDS011;1158;48.750;9.078;2022-09-28T11:55:17;4.83;;;2.03;;
2299;SDS011;1158;48.750;9.078;2022-09-28T11:57:52;4.37;;;2.10;;
2299;SDS011;1158;48.750;9.078;2022-09-28T12:00:25;3.53;;;1.40;;
2299;SDS011;1158;48.750;9.078;2022-09-28T12:02:56;8.40;;;2.20;;
2299;SDS011;1158;48.750;9.078;2022-09-28T12:05:31;6.33;;;2.00;;
2299;SDS011;1158;48.750;9.078;2022-09-28T12:08:03;4.03;;;1.50;;
2299;SDS011;1158;48.750;9.078;2022-09-28T12:10:34;3.33;;;1.67;;
2299;SDS011;1158;48.750;9.078;2022-09-28T12:13:08;2.70;;;1.80;;
2299;SDS011;1158;48.750;9.078;2022-09-28T12:15:40;3.47;;;1.50;;
2299;SDS011;1158;48.750;9.078;2022-09-28T12:18:13;3.80;;;1.80;;
2299;SDS011;1158;48.750;9.078;2022-09-28T12:20:46;3.10;;;1.43;;
2299;SDS011;1158;48.750;9.078;2022-09-28T12:23:16;4.10;;;1.50;;
2299;SDS011;1158;48.750;9.078;2022-09-28T12:25:50;6.33;;;2.10;;
2299;SDS011;1158;48.750;9.078;2022-09-28T12:28:24;5.63;;;1.97;;
2299;SDS011;1158;48.750;9.078;2022-09-28T12:30:57;5.40;;;1.83;;
2299;SDS011;1158;48.750;9.078;2022-09-28T12:33:30;4.40;;;1.63;;
2299;SDS011;1158;48.750;9.078;2022-09-28T12:36:01;3.53;;;1.90;;
2299;SDS011;1158;48.750;9.078;2022-09-28T12:38:41;7.20;;;2.40;;
2299;SDS011;1158;48.750;9.078;2022-09-28T12:41:30;3.40;;;1.43;;
2299;SDS011;1158;48.750;9.078;2022-09-28T12:47:11;3.07;;;1.50;;
2299;SDS011;1158;48.750;9.078;2022-09-28T12:49:52;2.80;;;1.33;;
2299;SDS011;1158;48.750;9.078;2022-09-28T12:52:31;3.07;;;1.30;;
2299;SDS011;1158;48.750;9.078;2022-09-28T12:55:09;3.00;;;1.63;;
2299;SDS011;1158;48.750;9.078;2022-09-28T12:57:48;6.53;;;1.73;;
2299;SDS011;1158;48.750;9.078;2022-09-28T13:00:22;4.57;;;1.93;;
2299;SDS011;1158;48.750;9.078;2022-09-28T13:02:57;4.33;;;1.60;;
2299;SDS011;1158;48.750;9.078;2022-09-28T13:08:52;4.47;;;1.50;;
2299;SDS011;1158;48.750;9.078;2022-09-28T13:11:31;4.07;;;1.87;;
2299;SDS011;1158;48.750;9.078;2022-09-28T13:14:13;4.33;;;1.40;;
2299;SDS011;1158;48.750;9.078;2022-09-28T13:17:14;3.70;;;1.40;;
2299;SDS011;1158;48.750;9.078;2022-09-28T13:19:50;2.80;;;1.23;;
2299;SDS011;1158;48.750;9.078;2022-09-28T13:22:26;6.17;;;1.40;;
2299;SDS011;1158;48.750;9.078;2022-09-28T13:25:00;3.73;;;1.43;;
2299;SDS011;1158;48.750;9.078;2022-09-28T13:27:30;4.50;;;1.73;;
2299;SDS011;1158;48.750;9.078;2022-09-28T13:30:02;2.20;;;1.30;;
2299;SDS011;1158;48.750;9.078;2022-09-28T13:32:32;6.50;;;1.50;;
2299;SDS011;1158;48.750;9.078;2022-09-28T13:35:00;4.50;;;1.50;;
2299;SDS011;1158;48.750;9.078;2022-09-28T13:37:29;3.10;;;1.60;;
2299;SDS011;1158;48.750;9.078;2022-09-28T13:39:56;5.03;;;1.70;;
2299;SDS011;1158;48.750;9.078;2022-09-28T13:42:26;2.87;;;1.53;;
2299;SDS011;1158;48.750;9.078;2022-09-28T13:45:32;4.57;;;1.30;;
2299;SDS011;1158;48.750;9.078;2022-09-28T13:48:18;4.13;;;1.93;;
2299;SDS011;1158;48.750;9.078;2022-09-28T13:50:51;3.43;;;1.47;;
2299;SDS011;1158;48.750;9.078;2022-09-28T13:53:34;3.83;;;1.40;;
2299;SDS011;1158;48.750;9.078;2022-09-28T13:56:22;3.83;;;1.10;;
2299;SDS011;1158;48.750;9.078;2022-09-28T13:58:55;2.27;;;1.60;;
2299;SDS011;1158;48.750;9.078;2022-09-28T14:01:27;2.50;;;1.20;;
2299;SDS011;1158;48.750;9.078;2022-09-28T14:04:09;2.90;;;1.60;;
2299;SDS011;1158;48.750;9.078;2022-09-28T14:06:40;3.50;;;1.43;;
2299;SDS011;1158;48.750;9.078;2022-09-28T14:09:23;5.27;;;2.07;;
2299;SDS011;1158;48.750;9.078;2022-09-28T14:11:53;3.40;;;1.50;;
2299;SDS011;1158;48.750;9.078;2022-09-28T14:14:28;4.40;;;1.60;;
2299;SDS011;1158;48.750;9.078;2022-09-28T14:20:14;2.60;;;1.10;;
2299;SDS011;1158;48.750;9.078;2022-09-28T14:22:48;4.80;;;1.50;;
2299;SDS011;1158;48.750;9.078;2022-09-28T14:25:57;4.40;;;1.60;;
2299;SDS011;1158;48.750;9.078;2022-09-28T14:28:41;3.70;;;1.40;;
2299;SDS011;1158;48.750;9.078;2022-09-28T14:31:16;4.20;;;2.10;;
2299;SDS011;1158;48.750;9.078;2022-09-28T14:33:53;3.07;;;1.83;;
2299;SDS011;1158;48.750;9.078;2022-09-28T14:36:22;2.57;;;1.57;;
2299;SDS011;1158;48.750;9.078;2022-09-28T14:39:15;3.43;;;1.47;;
2299;SDS011;1158;48.750;9.078;2022-09-28T14:42:13;3.10;;;1.93;;
2299;SDS011;1158;48.750;9.078;2022-09-28T14:48:01;2.10;;;1.20;;
2299;SDS011;1158;48.750;9.078;2022-09-28T14:50:45;7.50;;;1.50;;
2299;SDS011;1158;48.750;9.078;2022-09-28T14:53:15;7.33;;;1.80;;
2299;SDS011;1158;48.750;9.078;2022-09-28T14:55:45;4.70;;;2.00;;
2299;SDS011;1158;48.750;9.078;2022-09-28T14:58:16;2.90;;;1.63;;
2299;SDS011;1158;48.750;9.078;2022-09-28T15:00:46;5.10;;;1.70;;
2299;SDS011;1158;48.750;9.078;2022-09-28T15:03:20;3.87;;;1.70;;
2299;SDS011;1158;48.750;9.078;2022-09-28T15:05:48;2.87;;;1.50;;
2299;SDS011;1158;48.750;9.078;2022-09-28T15:08:18;4.90;;;1.50;;
2299;SDS011;1158;48.750;9.078;2022-09-28T15:10:47;6.30;;;1.50;;
2299;SDS011;1158;48.750;9.078;2022-09-28T15:13:18;5.43;;;1.67;;
2299;SDS011;1158;48.750;9.078;2022-09-28T15:15:49;3.20;;;1.23;;
2299;SDS011;1158;48.750;9.078;2022-09-28T15:21:23;3.60;;;1.17;;
2299;SDS011;1158;48.750;9.078;2022-09-28T15:23:58;4.10;;;1.43;;
2299;SDS011;1158;48.750;9.078;2022-09-28T15:26:28;2.10;;;1.10;;
2299;SDS011;1158;48.750;9.078;2022-09-28T15:28:57;3.20;;;1.27;;
2299;SDS011;1158;48.750;9.078;2022-09-28T15:31:27;4.37;;;1.60;;
2299;SDS011;1158;48.750;9.078;2022-09-28T15:33:59;3.90;;;1.43;;
2299;SDS011;1158;48.750;9.078;2022-09-28T15:36:43;3.93;;;1.20;;
2299;SDS011;1158;48.750;9.078;2022-09-28T15:39:11;4.47;;;1.80;;
2299;SDS011;1158;48.750;9.078;2022-09-28T15:41:40;3.93;;;1.30;;
2299;SDS011;1158;48.750;9.078;2022-09-28T15:44:19;4.63;;;1.50;;
2299;SDS011;1158;48.750;9.078;2022-09-28T15:47:03;3.83;;;1.40;;
2299;SDS011;1158;48.750;9.078;2022-09-28T15:49:36;2.90;;;1.43;;
2299;SDS011;1158;48.750;9.078;2022-09-28T15:52:07;3.00;;;1.30;;
2299;SDS011;1158;48.750;9.078;2022-09-28T15:54:48;2.83;;;1.30;;
2299;SDS011;1158;48.750;9.078;2022-09-28T15:57:34;5.53;;;1.23;;
2299;SDS011;1158;48.750;9.078;2022-09-28T16:00:06;2.97;;;1.50;;
2299;SDS011;1158;48.750;9.078;2022-09-28T16:02:58;3.17;;;1.40;;
2299;SDS011;1158;48.750;9.078;2022-09-28T16:05:28;3.77;;;1.20;;
2299;SDS011;1158;48.750;9.078;2022-09-28T16:08:00;2.90;;;1.50;;
2299;SDS011;1158;48.750;9.078;2022-09-28T16:10:32;4.33;;;1.60;;